CheckWX is a tool to help pilots better visualize weather data.  It is not intended as a substitute for an official pre-flight weather briefing.

12:33:26 UTC

LJMB METAR
Maribor Airport
Slovenia
Current

33 mins ago

LJMB 061200Z VRB02KT 5000 BR BKN008 00/M02 Q1021
Observed
Dec-6 @ 12:00 UTC
Wind
  • Variable at 2 KTS
Visibility
5,000 meters
Flight Rules
IFR
Conditions
Mist
Cloud Levels
  • Broken at 800' AGL
Temperature
C / 32°F
Dewpoint
-2°C / 28°F
Humidity
87%
Altimeter
30.15" Hg
Pressure
1020.92 hPa
Previous

1 hour ago

LJMB 061130Z 05001KT 5000 BR BKN008 M00/M02 Q1022
Observed
Dec-6 @ 11:30 UTC
Wind
  • 050° at 1 KTS
Visibility
5,000 meters
Flight Rules
IFR
Conditions
Mist
Cloud Levels
  • Broken at 800' AGL
Temperature
C / 32°F
Dewpoint
-2°C / 28°F
Humidity
87%
Altimeter
30.18" Hg
Pressure
1021.92 hPa
Previous

2 hours ago

LJMB 061100Z VRB01KT 4000 BR OVC007 M00/M02 Q1022
Observed
Dec-6 @ 11:00 UTC
Wind
  • Variable at 1 KTS
Visibility
4,000 meters
Flight Rules
IFR
Conditions
Mist
Cloud Levels
  • Overcast at 700' AGL
Temperature
C / 32°F
Dewpoint
-2°C / 28°F
Humidity
87%
Altimeter
30.18" Hg
Pressure
1021.92 hPa